Time;durP1;ratioP1;P1;durP2;ratioP2;P2;SDS_P1;SDS_P2;PMS_P1;PMS_P2;Temp;Humidity;BMP_temperature;BMP_pressure;BME280_temperature;BME280_humidity;BME280_pressure;Samples;Min_cycle;Max_cycle;Signal;HPM_P1;HPM_P2
2021/12/04 00:00:54;;;;;;;8.37;1.83;;;21.70;99.90;;;;;;5111063;28;20193;-69
2021/12/04 00:03:21;;;;;;;8.10;1.83;;;21.60;99.90;;;;;;5110415;28;20182;-68
2021/12/04 00:05:54;;;;;;;9.47;2.43;;;21.60;99.90;;;;;;5111788;28;20583;-68
2021/12/04 00:08:25;;;;;;;13.50;2.07;;;21.50;99.90;;;;;;5111063;28;20247;-68
2021/12/04 00:10:52;;;;;;;8.77;1.83;;;21.50;99.90;;;;;;5110738;28;20307;-68
2021/12/04 00:13:20;;;;;;;9.43;1.97;;;21.60;99.90;;;;;;5110868;28;20536;-70
2021/12/04 00:15:47;;;;;;;12.10;2.70;;;21.50;99.90;;;;;;5110648;28;20580;-71
2021/12/04 00:18:14;;;;;;;13.83;2.47;;;21.40;99.90;;;;;;5110785;28;20208;-68
2021/12/04 00:20:42;;;;;;;10.30;2.27;;;21.40;99.90;;;;;;5111785;28;20235;-69
2021/12/04 00:23:09;;;;;;;11.77;2.57;;;21.40;99.90;;;;;;5111163;28;20247;-71
2021/12/04 00:25:41;;;;;;;8.23;2.73;;;21.50;99.90;;;;;;5111470;28;20204;-71
2021/12/04 00:28:12;;;;;;;11.10;2.00;;;21.50;99.90;;;;;;5088636;28;20729;-73
2021/12/04 00:30:39;;;;;;;6.77;2.30;;;21.50;99.90;;;;;;5091101;28;20260;-68
2021/12/04 00:33:14;;;;;;;10.07;2.10;;;21.60;99.90;;;;;;5108634;28;20517;-71
2021/12/04 00:49:12;;;;;;;10.03;2.30;;;21.70;99.90;;;;;;5109107;28;20284;-71
2021/12/04 00:51:44;;;;;;;10.93;2.40;;;22.20;99.90;;;;;;5107442;28;20188;-70
2021/12/04 00:54:13;;;;;;;12.57;2.27;;;22.10;99.90;;;;;;5108383;28;20174;-71
2021/12/04 00:56:42;;;;;;;9.67;2.23;;;22.20;99.90;;;;;;5104706;28;20701;-73
2021/12/04 00:59:10;;;;;;;12.50;2.30;;;22.60;99.90;;;;;;5110412;28;20182;-70
2021/12/04 01:01:42;;;;;;;9.80;1.60;;;22.50;99.90;;;;;;5110046;28;20216;-73
2021/12/04 01:04:21;;;;;;;9.90;2.17;;;22.10;99.90;;;;;;5110751;27;20233;-70
2021/12/04 01:06:49;;;;;;;11.73;2.07;;;21.90;99.90;;;;;;5108382;28;20178;-69
2021/12/04 01:09:20;;;;;;;12.23;2.30;;;22.00;99.90;;;;;;5109585;27;20177;-73
2021/12/04 01:11:48;;;;;;;15.47;2.23;;;22.00;99.90;;;;;;5109449;27;20274;-71
2021/12/04 01:14:18;;;;;;;13.50;2.77;;;22.20;99.90;;;;;;5108131;28;20632;-71
2021/12/04 01:16:45;;;;;;;9.60;2.23;;;22.30;99.90;;;;;;5109902;28;20209;-69
2021/12/04 01:19:18;;;;;;;11.93;2.40;;;22.20;99.90;;;;;;5109404;27;20523;-74
2021/12/04 01:21:46;;;;;;;11.37;2.57;;;22.00;99.90;;;;;;5109481;28;20177;-70
2021/12/04 01:24:13;;;;;;;13.43;2.40;;;22.10;99.90;;;;;;5108301;28;20523;-69
2021/12/04 01:26:41;;;;;;;9.10;2.23;;;22.00;99.90;;;;;;5109462;28;20186;-69
2021/12/04 01:29:08;;;;;;;10.17;2.20;;;21.90;99.90;;;;;;5110990;28;20691;-70
2021/12/04 01:31:35;;;;;;;5.77;1.70;;;21.80;99.90;;;;;;5109203;28;20305;-70
2021/12/04 01:34:03;;;;;;;9.03;2.57;;;21.70;99.90;;;;;;5109966;28;20184;-68
2021/12/04 01:36:30;;;;;;;10.30;2.80;;;21.60;99.90;;;;;;5108222;28;20221;-69
2021/12/04 01:38:58;;;;;;;16.07;2.60;;;21.80;99.90;;;;;;5109179;28;20505;-72
2021/12/04 01:41:26;;;;;;;15.43;2.50;;;21.90;99.90;;;;;;5108597;28;20178;-73
2021/12/04 01:43:57;;;;;;;13.00;3.20;;;22.10;99.90;;;;;;5109565;28;20178;-70
2021/12/04 01:46:26;;;;;;;12.03;2.30;;;22.20;99.90;;;;;;5109807;28;20182;-73
2021/12/04 01:48:54;;;;;;;9.93;2.40;;;22.30;99.90;;;;;;5109158;28;20568;-69
2021/12/04 01:51:21;;;;;;;10.57;2.10;;;22.30;99.90;;;;;;5109697;28;20279;-72
2021/12/04 01:53:48;;;;;;;14.13;2.57;;;22.20;99.90;;;;;;5108476;28;20181;-70
2021/12/04 01:56:17;;;;;;;14.47;2.50;;;22.30;99.90;;;;;;5109505;28;20217;-72
2021/12/04 01:58:45;;;;;;;12.73;2.40;;;22.20;99.90;;;;;;5113435;28;20190;-72
2021/12/04 02:01:12;;;;;;;9.57;1.93;;;22.40;99.90;;;;;;5112377;28;20197;-69
2021/12/04 02:03:40;;;;;;;7.97;1.60;;;22.50;99.90;;;;;;5113053;28;20230;-72
2021/12/04 02:06:07;;;;;;;7.13;1.80;;;22.80;99.90;;;;;;5109677;28;20182;-71
2021/12/04 02:08:34;;;;;;;12.37;3.30;;;22.70;99.90;;;;;;5113111;28;20257;-73
2021/12/04 02:11:01;;;;;;;6.07;1.80;;;22.50;99.90;;;;;;5113551;28;20181;-71
2021/12/04 02:13:30;;;;;;;8.93;1.80;;;22.40;99.90;;;;;;5113607;28;20213;-69
2021/12/04 02:16:01;;;;;;;10.43;1.67;;;22.70;99.90;;;;;;5113776;28;20284;-69
2021/12/04 02:18:29;;;;;;;8.00;1.73;;;22.50;99.90;;;;;;5113125;28;20182;-70
2021/12/04 02:20:56;;;;;;;7.93;2.20;;;22.60;99.90;;;;;;5113760;28;20186;-71
2021/12/04 02:23:24;;;;;;;6.83;1.53;;;22.70;99.90;;;;;;5108620;28;20182;-71
2021/12/04 02:25:51;;;;;;;6.67;1.53;;;22.70;99.90;;;;;;5112531;28;20344;-71
2021/12/04 02:28:18;;;;;;;9.00;1.87;;;22.60;99.90;;;;;;5111053;28;20178;-68
2021/12/04 02:30:48;;;;;;;4.90;1.60;;;22.60;99.90;;;;;;5109445;28;20193;-70
2021/12/04 02:33:16;;;;;;;9.97;2.20;;;22.60;99.90;;;;;;5112486;28;20200;-69
2021/12/04 02:35:51;;;;;;;10.37;2.07;;;22.70;99.90;;;;;;5109757;28;20351;-70
2021/12/04 02:38:23;;;;;;;5.70;1.30;;;22.80;99.90;;;;;;5112904;28;20209;-72
2021/12/04 02:40:55;;;;;;;6.73;1.60;;;22.90;99.90;;;;;;5110512;28;20277;-72
2021/12/04 02:43:23;;;;;;;9.43;1.50;;;23.30;99.90;;;;;;5112978;28;20186;-70
2021/12/04 02:45:50;;;;;;;6.93;1.30;;;23.80;99.90;;;;;;5112939;28;20197;-70
2021/12/04 02:48:19;;;;;;;6.20;1.30;;;23.90;99.90;;;;;;5112615;28;20188;-73
2021/12/04 02:50:48;;;;;;;4.53;1.20;;;23.90;99.90;;;;;;5109827;28;20193;-69
2021/12/04 02:53:17;;;;;;;8.37;1.63;;;24.40;99.90;;;;;;5112588;28;20178;-69
2021/12/04 02:55:44;;;;;;;6.83;1.67;;;24.40;99.90;;;;;;5108988;28;20486;-71
2021/12/04 02:58:14;;;;;;;3.70;1.00;;;24.50;99.90;;;;;;5111963;28;20185;-69
2021/12/04 03:00:47;;;;;;;11.67;1.60;;;24.10;99.90;;;;;;5113457;28;20189;-75
2021/12/04 03:03:17;;;;;;;6.33;1.50;;;23.90;99.90;;;;;;5112893;28;20551;-70
2021/12/04 03:05:48;;;;;;;8.03;1.87;;;24.50;99.90;;;;;;5110822;28;20522;-72
2021/12/04 03:08:16;;;;;;;6.03;1.27;;;24.40;99.90;;;;;;5112253;28;20190;-71
2021/12/04 03:10:45;;;;;;;6.07;1.30;;;24.30;99.90;;;;;;5113575;28;20235;-72
2021/12/04 03:13:12;;;;;;;7.13;1.50;;;24.00;99.90;;;;;;5111253;28;20181;-71
2021/12/04 03:15:43;;;;;;;9.33;1.97;;;23.70;99.90;;;;;;5112519;28;20217;-70
2021/12/04 03:18:10;;;;;;;5.20;1.30;;;23.60;99.90;;;;;;5112340;28;20284;-71
2021/12/04 03:20:46;;;;;;;16.93;6.60;;;23.30;99.90;;;;;;5112836;28;20186;-69
2021/12/04 03:23:25;;;;;;;6.97;1.90;;;23.40;99.90;;;;;;5112720;28;20651;-71
2021/12/04 03:25:55;;;;;;;5.03;1.53;;;24.10;99.90;;;;;;5109742;28;20492;-68
2021/12/04 03:28:22;;;;;;;7.50;1.87;;;24.10;99.90;;;;;;5111837;28;20194;-70
2021/12/04 03:30:59;;;;;;;6.87;1.67;;;23.80;99.90;;;;;;5112522;28;20194;-74
2021/12/04 03:41:44;;;;;;;5.90;2.10;;;23.80;99.90;;;;;;5069551;28;20229;-72
2021/12/04 03:44:12;;;;;;;6.53;1.60;;;23.90;99.90;;;;;;5110915;28;20227;-73
2021/12/04 03:46:39;;;;;;;6.83;1.93;;;24.00;99.90;;;;;;5111879;28;20643;-70
2021/12/04 03:49:06;;;;;;;8.80;1.70;;;24.70;99.90;;;;;;5112052;28;20182;-70
2021/12/04 03:51:34;;;;;;;6.67;1.70;;;24.10;99.90;;;;;;5111591;28;20178;-72
2021/12/04 03:54:02;;;;;;;8.10;2.87;;;23.90;99.90;;;;;;5110660;28;20546;-74
2021/12/04 03:56:31;;;;;;;9.47;1.73;;;23.70;99.90;;;;;;5111859;28;20715;-71
2021/12/04 03:58:59;;;;;;;6.57;2.13;;;23.80;99.90;;;;;;5110750;28;20181;-71
2021/12/04 04:01:26;;;;;;;8.40;1.73;;;23.70;99.90;;;;;;5111703;28;20269;-69
2021/12/04 04:03:53;;;;;;;7.43;1.70;;;23.40;99.90;;;;;;5111999;28;20178;-70
2021/12/04 04:06:21;;;;;;;10.37;2.03;;;23.10;99.90;;;;;;5111708;28;20647;-69
2021/12/04 04:08:48;;;;;;;13.67;2.73;;;23.30;99.90;;;;;;5112129;28;20608;-69
2021/12/04 04:11:15;;;;;;;13.23;2.30;;;23.20;99.90;;;;;;5111083;28;20194;-70
2021/12/04 04:13:44;;;;;;;9.90;2.60;;;23.20;99.90;;;;;;5110954;28;20613;-71
2021/12/04 04:16:13;;;;;;;12.37;2.37;;;22.90;99.90;;;;;;5103901;28;20217;-70
2021/12/04 04:18:40;;;;;;;6.83;2.13;;;22.80;99.90;;;;;;5111559;28;20226;-70
2021/12/04 04:21:07;;;;;;;9.83;2.03;;;22.80;99.90;;;;;;5110981;28;20194;-72
2021/12/04 04:23:35;;;;;;;13.73;2.23;;;22.60;99.90;;;;;;5112287;28;20272;-68
2021/12/04 04:26:03;;;;;;;11.87;2.30;;;22.60;99.90;;;;;;5091234;28;20223;-69
2021/12/04 04:28:30;;;;;;;15.23;3.93;;;22.60;99.90;;;;;;5106556;28;20181;-69
2021/12/04 04:30:57;;;;;;;12.37;3.17;;;22.60;99.90;;;;;;5111508;28;20209;-72
2021/12/04 04:33:25;;;;;;;11.00;2.50;;;22.60;99.90;;;;;;5111215;28;20729;-75
2021/12/04 04:36:07;;;;;;;12.77;2.10;;;22.60;99.90;;;;;;5111010;28;20236;-71
2021/12/04 05:11:20;;;;;;;10.30;3.00;;;21.70;99.90;;;;;;5111040;28;20222;-71
2021/12/04 05:13:48;;;;;;;13.87;3.43;;;21.70;99.90;;;;;;5110990;28;20181;-70
2021/12/04 05:16:17;;;;;;;12.40;3.30;;;21.60;99.90;;;;;;5110270;28;20212;-69
2021/12/04 05:18:59;;;;;;;21.03;3.20;;;21.50;99.90;;;;;;5107456;28;20193;-71
2021/12/04 05:21:27;;;;;;;17.63;3.73;;;21.40;99.90;;;;;;5110588;28;20749;-70
2021/12/04 05:23:56;;;;;;;17.40;3.30;;;21.50;99.90;;;;;;5104961;28;20570;-73
2021/12/04 05:26:26;;;;;;;13.23;3.67;;;21.50;99.90;;;;;;5108976;28;20189;-70
2021/12/04 05:28:59;;;;;;;19.87;3.90;;;21.60;99.90;;;;;;5106436;28;20188;-72
2021/12/04 05:31:28;;;;;;;16.53;3.83;;;21.70;99.90;;;;;;5106073;28;20542;-70
2021/12/04 05:33:55;;;;;;;15.97;3.90;;;21.50;99.90;;;;;;5110383;28;20174;-71
2021/12/04 05:36:24;;;;;;;18.10;5.00;;;21.30;99.90;;;;;;5109843;28;20265;-71
2021/12/04 05:38:51;;;;;;;15.87;4.57;;;21.30;99.90;;;;;;5108541;28;20210;-70
2021/12/04 05:41:19;;;;;;;20.97;4.33;;;21.40;99.90;;;;;;5109213;28;20223;-73
2021/12/04 05:43:47;;;;;;;16.67;4.90;;;21.50;99.90;;;;;;5109081;28;20178;-73
2021/12/04 05:46:16;;;;;;;17.47;5.73;;;21.20;99.90;;;;;;5112737;28;20213;-70
2021/12/04 05:48:50;;;;;;;17.37;5.43;;;21.30;99.90;;;;;;5110718;28;20186;-73
2021/12/04 05:56:25;;;;;;;14.00;4.77;;;21.10;99.90;;;;;;5109558;28;20597;-73
2021/12/04 05:58:53;;;;;;;13.40;4.63;;;21.00;99.90;;;;;;5110071;28;20181;-70
2021/12/04 06:01:22;;;;;;;14.23;4.50;;;21.10;99.90;;;;;;5105442;28;20226;-71
2021/12/04 06:03:50;;;;;;;21.17;5.30;;;21.10;99.90;;;;;;5090163;28;20304;-69
2021/12/04 06:06:18;;;;;;;15.40;4.40;;;21.10;99.90;;;;;;5108797;28;20538;-68
2021/12/04 06:08:45;;;;;;;17.07;4.20;;;21.20;99.90;;;;;;5108952;28;20186;-73
2021/12/04 06:11:13;;;;;;;19.67;5.27;;;21.20;99.90;;;;;;5107054;28;20188;-70
2021/12/04 06:13:40;;;;;;;15.40;4.80;;;21.00;99.90;;;;;;5109113;28;20181;-75
2021/12/04 06:16:08;;;;;;;16.33;4.80;;;21.00;99.90;;;;;;5110159;28;20237;-70
2021/12/04 06:18:35;;;;;;;16.70;4.70;;;21.00;99.90;;;;;;5107758;28;20182;-70
2021/12/04 06:23:49;;;;;;;13.93;5.70;;;20.90;99.90;;;;;;5110117;28;20319;-70
2021/12/04 06:26:16;;;;;;;17.13;5.07;;;21.00;99.90;;;;;;5109177;28;20190;-72
2021/12/04 06:28:44;;;;;;;12.93;5.00;;;21.00;99.90;;;;;;5108452;28;20177;-73
2021/12/04 06:31:12;;;;;;;16.70;5.67;;;20.90;99.90;;;;;;5108699;28;20304;-69
2021/12/04 06:33:40;;;;;;;12.20;5.03;;;20.80;99.90;;;;;;5107951;28;21053;-70
2021/12/04 06:36:08;;;;;;;17.73;5.13;;;20.80;99.90;;;;;;5108777;28;20241;-71
2021/12/04 06:38:36;;;;;;;18.23;5.40;;;20.80;99.90;;;;;;5109148;28;20636;-67
2021/12/04 06:41:05;;;;;;;12.10;5.17;;;20.90;99.90;;;;;;5109289;28;20193;-71
2021/12/04 06:43:33;;;;;;;15.80;5.40;;;20.90;99.90;;;;;;5109225;28;20177;-71
2021/12/04 06:46:03;;;;;;;16.00;5.67;;;20.90;99.90;;;;;;5113077;28;20193;-70
2021/12/04 06:48:50;;;;;;;17.00;6.53;;;20.80;99.90;;;;;;5113015;28;20178;-71
2021/12/04 06:53:55;;;;;;;13.53;6.17;;;20.70;99.90;;;;;;5109870;28;20322;-70
2021/12/04 06:56:24;;;;;;;15.57;5.80;;;20.70;99.90;;;;;;5109489;28;20229;-70
2021/12/04 06:58:53;;;;;;;16.03;6.10;;;20.60;99.90;;;;;;5113229;28;20323;-70
2021/12/04 07:01:20;;;;;;;19.50;5.97;;;20.50;99.90;;;;;;5113489;28;20326;-72
2021/12/04 07:03:48;;;;;;;13.70;6.07;;;20.40;99.90;;;;;;5112165;28;20182;-68
2021/12/04 07:06:15;;;;;;;19.67;6.40;;;20.20;99.90;;;;;;5111662;28;20202;-69
2021/12/04 07:08:43;;;;;;;17.07;6.27;;;20.20;99.90;;;;;;5111318;28;20283;-71
2021/12/04 07:11:10;;;;;;;16.50;6.30;;;20.20;99.90;;;;;;5109136;28;20662;-69
2021/12/04 07:13:37;;;;;;;14.13;6.07;;;20.10;99.90;;;;;;5112848;28;20574;-70
2021/12/04 07:16:08;;;;;;;21.43;7.33;;;20.10;99.90;;;;;;5113422;28;20220;-69
2021/12/04 07:18:38;;;;;;;20.00;7.53;;;20.10;99.90;;;;;;5110822;28;20186;-69
2021/12/04 07:21:05;;;;;;;25.97;7.17;;;20.10;99.90;;;;;;5113290;28;20564;-70
2021/12/04 07:23:33;;;;;;;24.73;7.30;;;20.10;99.90;;;;;;5112411;28;20194;-68
2021/12/04 07:26:00;;;;;;;15.50;7.70;;;20.10;99.90;;;;;;5111099;28;20193;-70
2021/12/04 07:28:28;;;;;;;13.23;7.13;;;20.10;99.90;;;;;;5113223;28;20227;-69
2021/12/04 07:30:55;;;;;;;17.67;7.30;;;20.10;99.90;;;;;;5113828;27;20185;-73
2021/12/04 07:33:23;;;;;;;15.43;6.97;;;20.20;99.90;;;;;;5111882;28;20186;-70
2021/12/04 07:35:51;;;;;;;14.73;7.43;;;20.20;99.90;;;;;;5091748;28;20229;-69
2021/12/04 07:38:19;;;;;;;18.33;7.40;;;20.30;99.90;;;;;;5112869;28;20201;-70
2021/12/04 07:40:47;;;;;;;19.60;6.40;;;20.30;99.90;;;;;;5113346;28;20670;-70
2021/12/04 07:43:14;;;;;;;21.07;7.63;;;20.20;99.90;;;;;;5112301;28;20225;-69
2021/12/04 07:45:42;;;;;;;16.30;7.53;;;20.20;99.90;;;;;;5113241;28;20177;-68
2021/12/04 07:48:09;;;;;;;15.13;6.97;;;20.20;99.90;;;;;;5112768;28;20196;-71
2021/12/04 07:50:37;;;;;;;20.43;7.77;;;20.20;99.90;;;;;;5106946;28;20235;-67
2021/12/04 07:53:05;;;;;;;13.43;7.00;;;20.20;99.90;;;;;;5111993;28;20192;-72
2021/12/04 07:55:33;;;;;;;20.23;8.57;;;20.10;99.90;;;;;;5112122;28;20300;-70
2021/12/04 07:58:01;;;;;;;21.03;7.80;;;20.10;99.90;;;;;;5112095;28;20200;-68
2021/12/04 08:00:29;;;;;;;17.20;8.40;;;20.10;99.90;;;;;;5112031;28;20273;-72
2021/12/04 08:02:56;;;;;;;18.77;8.87;;;20.20;99.90;;;;;;5112559;28;20270;-69
2021/12/04 08:05:24;;;;;;;23.27;8.70;;;20.20;99.90;;;;;;5111325;28;20178;-71
2021/12/04 08:07:51;;;;;;;13.73;6.77;;;20.10;99.90;;;;;;5112257;28;20246;-70
2021/12/04 08:10:20;;;;;;;16.43;8.40;;;20.10;99.90;;;;;;5112802;28;20209;-70
2021/12/04 08:12:48;;;;;;;21.03;8.20;;;20.00;99.90;;;;;;5111157;28;20182;-69
2021/12/04 08:15:17;;;;;;;14.97;7.67;;;20.00;99.90;;;;;;5112506;28;20186;-71
2021/12/04 08:17:45;;;;;;;18.70;8.57;;;19.90;99.90;;;;;;5111292;28;20196;-68
2021/12/04 08:20:14;;;;;;;18.87;7.63;;;20.00;99.90;;;;;;5111960;28;20189;-71
2021/12/04 08:22:43;;;;;;;19.53;8.13;;;20.00;99.90;;;;;;5110962;28;20174;-71
2021/12/04 08:25:12;;;;;;;18.60;8.10;;;19.90;99.90;;;;;;5113167;27;20181;-70
2021/12/04 08:27:40;;;;;;;16.30;8.10;;;19.90;99.90;;;;;;5110174;28;20568;-70
2021/12/04 08:30:12;;;;;;;19.23;8.37;;;19.90;99.90;;;;;;5111987;28;20670;-69
2021/12/04 08:32:40;;;;;;;20.40;9.57;;;19.90;99.90;;;;;;5112227;28;20186;-69
2021/12/04 08:35:10;;;;;;;21.50;9.67;;;19.90;99.90;;;;;;5111660;28;20237;-70
2021/12/04 08:37:38;;;;;;;22.67;9.63;;;19.90;99.90;;;;;;5112146;28;20615;-71
2021/12/04 08:40:14;;;;;;;23.97;9.00;;;19.90;99.90;;;;;;5111652;28;20249;-69
2021/12/04 08:42:44;;;;;;;19.70;9.40;;;19.90;99.90;;;;;;5094920;28;20185;-73
2021/12/04 08:45:14;;;;;;;26.40;10.77;;;19.90;99.90;;;;;;5110286;28;20640;-68
2021/12/04 08:47:41;;;;;;;19.57;8.93;;;19.80;99.90;;;;;;5110799;28;20231;-72
2021/12/04 08:50:16;;;;;;;19.27;8.93;;;19.80;99.90;;;;;;5108035;28;20250;-68
2021/12/04 08:52:44;;;;;;;23.87;9.50;;;19.80;99.90;;;;;;5111197;28;20173;-72
2021/12/04 08:55:13;;;;;;;17.50;9.00;;;19.80;99.90;;;;;;5110700;27;20182;-72
2021/12/04 08:57:40;;;;;;;29.10;8.67;;;19.90;99.90;;;;;;5109932;28;20209;-70
2021/12/04 09:00:12;;;;;;;22.10;8.13;;;19.80;99.90;;;;;;5111278;28;20190;-72
2021/12/04 09:02:40;;;;;;;17.77;8.20;;;19.80;99.90;;;;;;5111164;28;20628;-69
2021/12/04 09:05:08;;;;;;;29.97;9.07;;;19.80;99.90;;;;;;5110856;28;20186;-69
2021/12/04 09:07:36;;;;;;;19.43;8.67;;;19.80;99.90;;;;;;5107475;28;20239;-71
2021/12/04 09:10:05;;;;;;;21.47;7.90;;;19.80;99.90;;;;;;5110888;28;20205;-68
2021/12/04 09:12:37;;;;;;;22.60;8.63;;;19.80;99.90;;;;;;5110460;28;20197;-72
2021/12/04 09:15:07;;;;;;;19.13;8.23;;;19.70;99.90;;;;;;5110091;28;20185;-71
2021/12/04 09:17:35;;;;;;;15.60;7.70;;;19.80;99.90;;;;;;5108452;28;20273;-72
2021/12/04 09:20:03;;;;;;;22.10;8.40;;;19.70;99.90;;;;;;5110600;28;20185;-70
2021/12/04 09:22:33;;;;;;;21.33;9.17;;;19.70;99.90;;;;;;5110730;28;20615;-71
2021/12/04 09:25:04;;;;;;;22.53;8.23;;;19.80;99.90;;;;;;5110773;28;20174;-71
2021/12/04 10:03:23;;;;;;;21.57;7.20;;;19.60;99.90;;;;;;5110396;28;20196;-69
2021/12/04 10:11:48;;;;;;;18.00;5.57;;;19.60;99.90;;;;;;5109024;28;20197;-69
2021/12/04 10:33:42;;;;;;;22.60;4.67;;;19.20;99.90;;;;;;5112939;28;20177;-69
2021/12/04 10:36:11;;;;;;;16.00;4.03;;;19.10;99.90;;;;;;5113009;28;20241;-69
2021/12/04 10:38:43;;;;;;;16.03;3.93;;;19.10;99.90;;;;;;5114366;28;20188;-69
2021/12/04 10:41:12;;;;;;;23.87;4.10;;;19.10;99.90;;;;;;5113517;28;20306;-73
2021/12/04 10:43:40;;;;;;;15.67;3.83;;;19.10;99.90;;;;;;5116097;27;20222;-70
2021/12/04 10:46:15;;;;;;;16.87;3.87;;;19.00;99.90;;;;;;5114151;28;20276;-72
2021/12/04 10:48:51;;;;;;;23.63;3.93;;;18.90;99.90;;;;;;5114772;27;20247;-72
2021/12/04 10:51:25;;;;;;;19.63;4.57;;;18.70;99.90;;;;;;5112807;28;20659;-71
2021/12/04 10:53:56;;;;;;;21.43;5.27;;;18.60;99.90;;;;;;5111792;28;20197;-74
2021/12/04 11:04:41;;;;;;;13.17;3.93;;;18.40;99.90;;;;;;5113162;28;20280;-72
2021/12/04 11:36:02;;;;;;;13.27;3.13;;;17.80;99.90;;;;;;5112737;28;20251;-71
2021/12/04 11:38:21;;;;;;;18.47;2.97;;;17.80;99.90;;;;;;5112399;28;20197;-73
2021/12/04 11:43:20;;;;;;;22.50;3.40;;;18.00;99.90;;;;;;5113189;28;20189;-69
2021/12/04 11:46:02;;;;;;;14.40;3.60;;;18.00;99.90;;;;;;5113284;28;20204;-70
2021/12/04 11:48:39;;;;;;;14.53;3.37;;;18.10;99.90;;;;;;5111674;28;20239;-71
2021/12/04 11:51:15;;;;;;;22.13;3.47;;;18.10;99.90;;;;;;5112086;28;20559;-71
2021/12/04 11:53:43;;;;;;;21.70;4.00;;;18.10;99.90;;;;;;5108424;28;20193;-71
2021/12/04 11:56:19;;;;;;;16.50;3.03;;;18.00;99.90;;;;;;5112093;28;20884;-72
2021/12/04 11:58:49;;;;;;;18.23;3.13;;;18.00;99.90;;;;;;5113488;28;20189;-71
2021/12/04 12:01:32;;;;;;;15.60;2.73;;;18.00;99.90;;;;;;5111714;28;20542;-71
2021/12/04 12:04:04;;;;;;;18.43;3.07;;;18.10;99.90;;;;;;5112542;28;20192;-74
2021/12/04 12:06:44;;;;;;;18.50;3.70;;;18.00;99.90;;;;;;5111854;28;20541;-71
2021/12/04 12:09:19;;;;;;;15.80;3.13;;;18.00;99.90;;;;;;5112461;28;20203;-71
2021/12/04 12:11:53;;;;;;;18.40;3.27;;;18.00;99.90;;;;;;5112238;28;20653;-72
2021/12/04 12:14:37;;;;;;;21.77;3.87;;;17.90;99.90;;;;;;5112218;28;20299;-69
2021/12/04 12:17:05;;;;;;;19.23;3.37;;;17.80;99.90;;;;;;5112273;28;20224;-71
2021/12/04 12:19:41;;;;;;;26.47;2.73;;;17.80;99.90;;;;;;5109339;28;20239;-71
2021/12/04 12:22:27;;;;;;;14.27;2.67;;;17.70;99.90;;;;;;5111919;28;20257;-72
2021/12/04 12:25:05;;;;;;;19.77;3.63;;;17.60;99.90;;;;;;5109692;28;20230;-71
2021/12/04 12:33:40;;;;;;;16.03;3.63;;;17.50;99.90;;;;;;5111127;28;20184;-69
2021/12/04 12:36:21;;;;;;;25.90;3.30;;;17.50;99.90;;;;;;5110514;28;20236;-71
2021/12/04 12:38:52;;;;;;;19.43;2.93;;;17.40;99.90;;;;;;5106542;28;20271;-71
2021/12/04 12:41:50;;;;;;;18.17;3.20;;;17.40;99.90;;;;;;5108924;28;20192;-70
2021/12/04 12:44:27;;;;;;;16.47;3.00;;;17.50;99.90;;;;;;5111056;28;20329;-72
2021/12/04 12:46:59;;;;;;;19.50;4.90;;;17.60;99.90;;;;;;5109898;28;20193;-69
2021/12/04 12:49:44;;;;;;;15.23;3.97;;;17.60;99.90;;;;;;5111690;28;20640;-75
2021/12/04 12:52:25;;;;;;;14.50;3.87;;;17.80;99.90;;;;;;5110301;28;20265;-70
2021/12/04 12:54:55;;;;;;;12.63;2.47;;;17.80;99.90;;;;;;5111692;28;20210;-70
2021/12/04 12:57:26;;;;;;;11.33;2.53;;;17.90;99.90;;;;;;5111276;28;20233;-69
2021/12/04 13:14:16;;;;;;;12.80;2.27;;;17.80;99.90;;;;;;5110861;28;20268;-69
2021/12/04 13:16:51;;;;;;;15.40;2.27;;;17.80;99.90;;;;;;5109643;28;20213;-69
2021/12/04 13:19:23;;;;;;;15.37;2.80;;;17.70;99.90;;;;;;5110100;28;20205;-67
2021/12/04 13:21:52;;;;;;;12.00;2.63;;;17.80;99.90;;;;;;5110959;28;20266;-67
2021/12/04 13:24:29;;;;;;;14.87;2.73;;;17.70;99.90;;;;;;5110416;28;20186;-68
2021/12/04 13:26:57;;;;;;;13.43;2.83;;;17.80;99.90;;;;;;5108722;28;20694;-68
2021/12/04 13:29:29;;;;;;;11.20;2.80;;;17.80;99.90;;;;;;5111431;28;20616;-69
2021/12/04 13:31:58;;;;;;;12.30;3.20;;;17.90;99.90;;;;;;5109214;28;20189;-67
2021/12/04 13:34:28;;;;;;;16.60;2.90;;;17.90;99.90;;;;;;5109947;28;20586;-68
2021/12/04 13:36:58;;;;;;;13.97;2.43;;;18.00;99.90;;;;;;5108882;28;20705;-68
2021/12/04 13:39:26;;;;;;;14.60;2.73;;;18.00;99.90;;;;;;5111261;28;20630;-68
2021/12/04 13:41:54;;;;;;;16.53;3.40;;;18.00;99.90;;;;;;5110736;28;20193;-67
2021/12/04 13:44:25;;;;;;;16.50;2.77;;;18.00;99.90;;;;;;5110990;28;20223;-70
2021/12/04 13:46:56;;;;;;;15.23;2.30;;;18.10;99.90;;;;;;5111170;28;20272;-70
2021/12/04 13:49:40;;;;;;;9.90;2.30;;;18.10;99.90;;;;;;5110958;28;20213;-67
2021/12/04 13:52:10;;;;;;;14.00;2.43;;;18.20;99.90;;;;;;5110874;28;20197;-67
2021/12/04 13:54:49;;;;;;;12.03;2.20;;;18.20;99.90;;;;;;5112695;28;20286;-68
2021/12/04 13:57:17;;;;;;;12.27;2.30;;;18.20;99.90;;;;;;5113035;28;20333;-68
2021/12/04 13:59:45;;;;;;;9.87;2.40;;;18.20;99.90;;;;;;5115310;28;20635;-70
2021/12/04 14:02:27;;;;;;;13.90;2.20;;;18.30;99.90;;;;;;5111786;28;20196;-67
2021/12/04 14:05:21;;;;;;;9.47;2.23;;;18.30;99.90;;;;;;5111128;28;20710;-66
2021/12/04 14:07:55;;;;;;;16.27;2.10;;;18.30;99.90;;;;;;5110772;28;20213;-70
2021/12/04 14:10:37;;;;;;;9.63;2.20;;;18.30;99.90;;;;;;5113771;28;20186;-67
2021/12/04 14:13:06;;;;;;;14.90;2.27;;;18.30;99.90;;;;;;5113280;28;20236;-69
2021/12/04 14:15:34;;;;;;;12.07;3.07;;;18.30;99.90;;;;;;5112688;28;20193;-71
2021/12/04 14:18:08;;;;;;;9.73;2.23;;;18.30;99.90;;;;;;5110952;28;20560;-67
2021/12/04 14:20:38;;;;;;;14.53;2.47;;;18.30;99.90;;;;;;5110452;28;20203;-68
2021/12/04 14:23:06;;;;;;;10.10;2.03;;;18.30;99.90;;;;;;5112859;28;20185;-68
2021/12/04 14:25:42;;;;;;;14.27;2.50;;;18.30;99.90;;;;;;5113399;28;20188;-67
2021/12/04 14:28:10;;;;;;;11.20;2.13;;;18.40;99.90;;;;;;5114335;28;20197;-68
2021/12/04 14:30:38;;;;;;;8.97;2.10;;;18.40;99.90;;;;;;5114520;28;20197;-68
2021/12/04 14:33:09;;;;;;;19.50;2.57;;;18.40;99.90;;;;;;5095720;28;20197;-68
2021/12/04 14:35:40;;;;;;;11.93;2.03;;;18.50;99.90;;;;;;5113120;28;20229;-71
2021/12/04 14:38:10;;;;;;;9.23;2.20;;;18.50;99.90;;;;;;5114113;28;20701;-69
2021/12/04 14:40:44;;;;;;;10.80;2.03;;;18.50;99.90;;;;;;5115099;28;20174;-67
2021/12/04 14:43:17;;;;;;;15.93;1.90;;;18.60;99.90;;;;;;5114114;28;20253;-68
2021/12/04 14:45:48;;;;;;;16.73;2.30;;;18.60;99.90;;;;;;5113846;28;20234;-68
2021/12/04 14:48:34;;;;;;;13.33;2.17;;;18.60;99.90;;;;;;5113392;28;20187;-68
2021/12/04 14:51:09;;;;;;;18.10;2.50;;;18.60;99.90;;;;;;5112991;28;20238;-69
2021/12/04 14:53:39;;;;;;;12.63;2.37;;;18.60;99.90;;;;;;5112707;28;20177;-68
2021/12/04 14:56:10;;;;;;;14.47;2.40;;;18.60;99.90;;;;;;5113338;28;20240;-70
2021/12/04 14:58:38;;;;;;;15.53;2.50;;;18.60;99.90;;;;;;5113959;28;20185;-75
2021/12/04 15:01:10;;;;;;;8.67;2.20;;;18.60;99.90;;;;;;5111933;28;20190;-68
2021/12/04 15:03:55;;;;;;;8.77;2.07;;;18.50;99.90;;;;;;5112890;28;20182;-68
2021/12/04 15:06:25;;;;;;;12.53;2.27;;;18.50;99.90;;;;;;5111805;28;20553;-71
2021/12/04 15:09:14;;;;;;;11.07;2.47;;;18.40;99.90;;;;;;5112973;28;20224;-70
2021/12/04 15:11:48;;;;;;;14.20;2.03;;;18.40;99.90;;;;;;5112294;28;20231;-69
2021/12/04 15:14:30;;;;;;;13.37;2.00;;;18.40;99.90;;;;;;5110648;28;20216;-68
2021/12/04 15:17:04;;;;;;;18.70;2.70;;;18.40;99.90;;;;;;5112953;28;20217;-70
2021/12/04 15:19:40;;;;;;;12.43;2.13;;;18.40;99.90;;;;;;5111453;28;20242;-69
2021/12/04 15:22:16;;;;;;;17.83;2.87;;;18.30;99.90;;;;;;5112387;28;20663;-72
2021/12/04 15:24:45;;;;;;;17.73;2.10;;;18.30;99.90;;;;;;5111568;28;20196;-70
2021/12/04 15:27:18;;;;;;;8.10;1.60;;;18.30;99.90;;;;;;5110873;28;20205;-68
2021/12/04 15:29:51;;;;;;;11.37;2.30;;;18.30;99.90;;;;;;5109584;28;20259;-68
2021/12/04 15:32:21;;;;;;;8.77;1.63;;;18.20;99.90;;;;;;5113242;28;20209;-68
2021/12/04 15:34:57;;;;;;;9.80;2.07;;;18.10;99.90;;;;;;5113981;28;20225;-68
2021/12/04 15:37:37;;;;;;;13.07;1.87;;;18.20;99.90;;;;;;5111793;28;20263;-69
2021/12/04 15:40:11;;;;;;;9.57;2.63;;;18.20;99.90;;;;;;5113301;28;20542;-70
2021/12/04 15:42:52;;;;;;;11.87;2.20;;;18.20;99.90;;;;;;5113094;28;20411;-71
2021/12/04 15:51:14;;;;;;;11.07;1.93;;;18.30;99.90;;;;;;5112921;28;20235;-71
2021/12/04 15:53:57;;;;;;;8.73;1.60;;;18.30;99.90;;;;;;5111794;28;20319;-73
2021/12/04 15:56:54;;;;;;;7.93;2.37;;;18.30;99.90;;;;;;5111894;28;20222;-71
2021/12/04 15:59:30;;;;;;;12.83;2.20;;;18.20;99.90;;;;;;5105749;28;20190;-68
2021/12/04 16:02:09;;;;;;;10.20;2.50;;;18.10;99.90;;;;;;5112907;28;20268;-71
2021/12/04 16:04:36;;;;;;;8.50;2.10;;;17.90;99.90;;;;;;5113605;28;20614;-68
2021/12/04 16:07:04;;;;;;;11.67;2.43;;;17.60;99.90;;;;;;5111818;28;20178;-69